sensor_id;sensor_type;location;lat;lon;timestamp;pressure;altitude;pressure_sealevel;temperature;humidity
10688;BME280;5392;42.688;23.298;2023-12-22T00:00:10;93403.59;;;-0.26;81.07
10688;BME280;5392;42.688;23.298;2023-12-22T00:02:36;93393.34;;;-0.33;81.38
10688;BME280;5392;42.688;23.298;2023-12-22T00:05:01;93390.59;;;-0.23;81.10
10688;BME280;5392;42.688;23.298;2023-12-22T00:07:27;93380.47;;;-0.23;81.28
10688;BME280;5392;42.688;23.298;2023-12-22T00:09:53;93383.91;;;-0.16;81.04
10688;BME280;5392;42.688;23.298;2023-12-22T00:12:19;93383.34;;;-0.26;81.05
10688;BME280;5392;42.688;23.298;2023-12-22T00:14:44;93377.38;;;-0.33;81.42
10688;BME280;5392;42.688;23.298;2023-12-22T00:17:10;93376.59;;;-0.34;81.26
10688;BME280;5392;42.688;23.298;2023-12-22T00:19:36;93364.34;;;-0.45;81.87
10688;BME280;5392;42.688;23.298;2023-12-22T00:22:01;93371.59;;;-0.42;81.59
10688;BME280;5392;42.688;23.298;2023-12-22T00:24:28;93374.59;;;-0.38;81.60
10688;BME280;5392;42.688;23.298;2023-12-22T00:26:54;93355.56;;;-0.20;81.04
10688;BME280;5392;42.688;23.298;2023-12-22T00:29:20;93352.81;;;-0.10;80.64
10688;BME280;5392;42.688;23.298;2023-12-22T00:31:45;93339.53;;;0.03;79.85
10688;BME280;5392;42.688;23.298;2023-12-22T00:34:11;93334.84;;;-0.01;79.66
10688;BME280;5392;42.688;23.298;2023-12-22T00:36:36;93338.88;;;0.09;79.36
10688;BME280;5392;42.688;23.298;2023-12-22T00:39:02;93322.50;;;0.26;79.01
10688;BME280;5392;42.688;23.298;2023-12-22T00:41:28;93336.31;;;0.09;79.53
10688;BME280;5392;42.688;23.298;2023-12-22T00:43:54;93323.03;;;0.21;78.93
10688;BME280;5392;42.688;23.298;2023-12-22T00:46:19;93340.25;;;-0.04;79.83
10688;BME280;5392;42.688;23.298;2023-12-22T00:48:45;93332.72;;;-0.12;80.04
10688;BME280;5392;42.688;23.298;2023-12-22T00:51:11;93321.09;;;-0.21;80.28
10688;BME280;5392;42.688;23.298;2023-12-22T00:53:36;93332.13;;;-0.14;80.01
10688;BME280;5392;42.688;23.298;2023-12-22T00:56:02;93323.22;;;0.05;79.29
10688;BME280;5392;42.688;23.298;2023-12-22T00:58:29;93319.81;;;0.13;78.79
10688;BME280;5392;42.688;23.298;2023-12-22T01:00:55;93312.56;;;0.24;78.33
10688;BME280;5392;42.688;23.298;2023-12-22T01:03:20;93317.19;;;0.35;77.86
10688;BME280;5392;42.688;23.298;2023-12-22T01:05:46;93320.41;;;0.44;77.41
10688;BME280;5392;42.688;23.298;2023-12-22T01:08:11;93320.94;;;0.39;77.76
10688;BME280;5392;42.688;23.298;2023-12-22T01:10:37;93334.97;;;0.56;77.76
10688;BME280;5392;42.688;23.298;2023-12-22T01:13:02;93327.91;;;0.52;78.31
10688;BME280;5392;42.688;23.298;2023-12-22T01:15:28;93335.50;;;0.66;77.32
10688;BME280;5392;42.688;23.298;2023-12-22T01:17:53;93311.69;;;0.67;77.37
10688;BME280;5392;42.688;23.298;2023-12-22T01:20:19;93321.91;;;0.74;76.92
10688;BME280;5392;42.688;23.298;2023-12-22T01:22:44;93322.25;;;0.86;76.95
10688;BME280;5392;42.688;23.298;2023-12-22T01:25:10;93311.28;;;1.00;76.26
10688;BME280;5392;42.688;23.298;2023-12-22T01:27:35;93315.97;;;0.67;76.95
10688;BME280;5392;42.688;23.298;2023-12-22T01:30:01;93307.03;;;0.86;76.06
10688;BME280;5392;42.688;23.298;2023-12-22T01:32:26;93312.59;;;0.96;76.51
10688;BME280;5392;42.688;23.298;2023-12-22T01:34:52;93301.00;;;1.08;75.79
10688;BME280;5392;42.688;23.298;2023-12-22T01:37:18;93290.31;;;1.12;75.79
10688;BME280;5392;42.688;23.298;2023-12-22T01:39:43;93291.50;;;1.16;75.58
10688;BME280;5392;42.688;23.298;2023-12-22T01:42:08;93279.84;;;1.22;75.00
10688;BME280;5392;42.688;23.298;2023-12-22T01:44:34;93289.03;;;1.02;75.71
10688;BME280;5392;42.688;23.298;2023-12-22T01:47:00;93280.34;;;1.11;75.23
10688;BME280;5392;42.688;23.298;2023-12-22T01:49:25;93270.59;;;1.14;75.32
10688;BME280;5392;42.688;23.298;2023-12-22T01:51:51;93274.56;;;0.96;75.77
10688;BME280;5392;42.688;23.298;2023-12-22T01:54:17;93284.81;;;1.09;76.02
10688;BME280;5392;42.688;23.298;2023-12-22T01:56:45;93264.56;;;1.15;75.01
10688;BME280;5392;42.688;23.298;2023-12-22T01:59:11;93272.84;;;1.03;75.66
10688;BME280;5392;42.688;23.298;2023-12-22T02:01:38;93263.25;;;1.19;75.53
10688;BME280;5392;42.688;23.298;2023-12-22T02:04:03;93274.28;;;1.12;75.82
10688;BME280;5392;42.688;23.298;2023-12-22T02:06:30;93256.66;;;1.25;75.34
10688;BME280;5392;42.688;23.298;2023-12-22T02:08:57;93266.03;;;1.24;75.46
10688;BME280;5392;42.688;23.298;2023-12-22T02:11:23;93273.63;;;1.24;74.90
10688;BME280;5392;42.688;23.298;2023-12-22T02:13:49;93263.38;;;1.11;75.68
10688;BME280;5392;42.688;23.298;2023-12-22T02:19:40;93257.69;;;1.09;75.77
10688;BME280;5392;42.688;23.298;2023-12-22T02:22:08;93252.84;;;1.14;74.90
10688;BME280;5392;42.688;23.298;2023-12-22T02:24:34;93259.59;;;1.07;75.52
10688;BME280;5392;42.688;23.298;2023-12-22T02:27:25;93246.91;;;1.07;75.21
10688;BME280;5392;42.688;23.298;2023-12-22T02:30:07;93257.88;;;0.87;75.47
10688;BME280;5392;42.688;23.298;2023-12-22T02:32:42;93253.34;;;0.82;76.17
10688;BME280;5392;42.688;23.298;2023-12-22T02:35:15;93255.66;;;0.98;75.27
10688;BME280;5392;42.688;23.298;2023-12-22T02:37:42;93261.25;;;0.72;75.95
10688;BME280;5392;42.688;23.298;2023-12-22T02:40:11;93252.69;;;0.95;75.92
10688;BME280;5392;42.688;23.298;2023-12-22T02:42:37;93248.16;;;0.90;75.74
10688;BME280;5392;42.688;23.298;2023-12-22T02:45:04;93249.19;;;0.96;75.80
10688;BME280;5392;42.688;23.298;2023-12-22T02:47:30;93254.91;;;0.83;76.59
10688;BME280;5392;42.688;23.298;2023-12-22T02:49:57;93244.06;;;0.89;76.63
10688;BME280;5392;42.688;23.298;2023-12-22T02:52:23;93235.22;;;0.85;76.18
10688;BME280;5392;42.688;23.298;2023-12-22T02:54:48;93226.53;;;0.94;75.92
10688;BME280;5392;42.688;23.298;2023-12-22T02:57:14;93221.88;;;0.77;76.50
10688;BME280;5392;42.688;23.298;2023-12-22T02:59:39;93219.34;;;0.55;77.21
10688;BME280;5392;42.688;23.298;2023-12-22T03:02:05;93218.03;;;0.45;77.31
10688;BME280;5392;42.688;23.298;2023-12-22T03:04:31;93214.56;;;0.46;77.32
10688;BME280;5392;42.688;23.298;2023-12-22T03:06:56;93225.03;;;0.43;77.36
10688;BME280;5392;42.688;23.298;2023-12-22T03:09:22;93226.41;;;0.60;76.93
10688;BME280;5392;42.688;23.298;2023-12-22T03:11:48;93217.53;;;0.70;76.67
10688;BME280;5392;42.688;23.298;2023-12-22T03:14:13;93219.81;;;0.65;77.02
10688;BME280;5392;42.688;23.298;2023-12-22T03:16:40;93224.41;;;0.77;76.87
10688;BME280;5392;42.688;23.298;2023-12-22T03:19:07;93225.50;;;0.89;75.79
10688;BME280;5392;42.688;23.298;2023-12-22T03:21:32;93222.06;;;0.75;76.36
10688;BME280;5392;42.688;23.298;2023-12-22T03:23:58;93232.94;;;0.90;76.99
10688;BME280;5392;42.688;23.298;2023-12-22T03:26:26;93226.03;;;1.05;75.97
10688;BME280;5392;42.688;23.298;2023-12-22T03:28:52;93224.94;;;1.14;75.64
10688;BME280;5392;42.688;23.298;2023-12-22T03:31:18;93227.59;;;1.06;75.81
10688;BME280;5392;42.688;23.298;2023-12-22T03:33:43;93235.63;;;1.10;75.58
10688;BME280;5392;42.688;23.298;2023-12-22T03:36:09;93232.81;;;0.98;75.56
10688;BME280;5392;42.688;23.298;2023-12-22T03:38:34;93228.78;;;0.83;76.26
10688;BME280;5392;42.688;23.298;2023-12-22T03:41:00;93226.00;;;0.78;76.89
10688;BME280;5392;42.688;23.298;2023-12-22T03:43:25;93224.59;;;0.96;75.98
10688;BME280;5392;42.688;23.298;2023-12-22T03:45:51;93219.03;;;0.86;76.05
10688;BME280;5392;42.688;23.298;2023-12-22T03:48:16;93222.94;;;1.10;76.37
10688;BME280;5392;42.688;23.298;2023-12-22T03:50:42;93215.56;;;1.15;76.46
10688;BME280;5392;42.688;23.298;2023-12-22T03:53:07;93220.69;;;1.21;75.36
10688;BME280;5392;42.688;23.298;2023-12-22T03:55:33;93222.69;;;1.26;75.55
10688;BME280;5392;42.688;23.298;2023-12-22T03:57:58;93219.03;;;1.35;74.32
10688;BME280;5392;42.688;23.298;2023-12-22T04:00:23;93220.44;;;1.16;74.73
10688;BME280;5392;42.688;23.298;2023-12-22T04:02:49;93219.22;;;1.06;76.05
10688;BME280;5392;42.688;23.298;2023-12-22T04:05:14;93220.78;;;0.86;76.93
10688;BME280;5392;42.688;23.298;2023-12-22T04:07:40;93230.88;;;0.79;76.63
10688;BME280;5392;42.688;23.298;2023-12-22T04:10:06;93220.94;;;1.05;76.62
10688;BME280;5392;42.688;23.298;2023-12-22T04:12:31;93219.16;;;1.20;75.73
10688;BME280;5392;42.688;23.298;2023-12-22T04:14:57;93218.84;;;1.36;76.23
10688;BME280;5392;42.688;23.298;2023-12-22T04:17:22;93220.91;;;1.54;75.46
10688;BME280;5392;42.688;23.298;2023-12-22T04:19:48;93220.59;;;1.64;75.05
10688;BME280;5392;42.688;23.298;2023-12-22T04:22:13;93220.75;;;1.56;75.62
10688;BME280;5392;42.688;23.298;2023-12-22T04:24:39;93218.31;;;1.75;74.23
10688;BME280;5392;42.688;23.298;2023-12-22T04:27:04;93206.66;;;1.81;74.73
10688;BME280;5392;42.688;23.298;2023-12-22T04:29:30;93206.28;;;1.90;74.03
10688;BME280;5392;42.688;23.298;2023-12-22T04:31:55;93202.38;;;1.94;74.05
10688;BME280;5392;42.688;23.298;2023-12-22T04:34:21;93192.38;;;1.80;75.13
10688;BME280;5392;42.688;23.298;2023-12-22T04:36:46;93197.22;;;1.75;74.99
10688;BME280;5392;42.688;23.298;2023-12-22T04:39:12;93207.41;;;1.81;74.66
10688;BME280;5392;42.688;23.298;2023-12-22T04:41:38;93197.41;;;1.73;75.16
10688;BME280;5392;42.688;23.298;2023-12-22T04:44:04;93195.69;;;1.80;74.73
10688;BME280;5392;42.688;23.298;2023-12-22T04:46:30;93200.22;;;1.85;74.01
10688;BME280;5392;42.688;23.298;2023-12-22T04:48:55;93186.13;;;1.82;74.57
10688;BME280;5392;42.688;23.298;2023-12-22T04:51:21;93177.50;;;1.77;74.89
10688;BME280;5392;42.688;23.298;2023-12-22T04:53:47;93188.38;;;1.64;75.75
10688;BME280;5392;42.688;23.298;2023-12-22T04:56:12;93193.47;;;1.64;77.12
10688;BME280;5392;42.688;23.298;2023-12-22T04:58:38;93192.84;;;1.62;77.14
10688;BME280;5392;42.688;23.298;2023-12-22T05:01:03;93185.25;;;1.62;76.34
10688;BME280;5392;42.688;23.298;2023-12-22T05:03:29;93187.34;;;1.59;75.16
10688;BME280;5392;42.688;23.298;2023-12-22T05:05:54;93179.06;;;1.43;75.67
10688;BME280;5392;42.688;23.298;2023-12-22T05:08:19;93174.19;;;1.14;76.80
10688;BME280;5392;42.688;23.298;2023-12-22T05:10:45;93178.19;;;1.30;77.05
10688;BME280;5392;42.688;23.298;2023-12-22T05:13:10;93170.81;;;1.35;77.61
10688;BME280;5392;42.688;23.298;2023-12-22T05:15:36;93171.84;;;1.40;78.13
10688;BME280;5392;42.688;23.298;2023-12-22T05:18:01;93168.84;;;1.65;77.34
10688;BME280;5392;42.688;23.298;2023-12-22T05:20:27;93169.22;;;1.62;76.66
10688;BME280;5392;42.688;23.298;2023-12-22T05:22:52;93177.06;;;1.67;77.03
10688;BME280;5392;42.688;23.298;2023-12-22T05:25:18;93163.78;;;1.65;77.50
10688;BME280;5392;42.688;23.298;2023-12-22T05:27:43;93165.72;;;1.63;78.45
10688;BME280;5392;42.688;23.298;2023-12-22T05:30:09;93171.59;;;1.70;78.39
10688;BME280;5392;42.688;23.298;2023-12-22T05:32:35;93187.00;;;1.62;77.94
10688;BME280;5392;42.688;23.298;2023-12-22T05:35:00;93169.69;;;1.44;79.31
10688;BME280;5392;42.688;23.298;2023-12-22T05:37:26;93188.03;;;1.39;79.54
10688;BME280;5392;42.688;23.298;2023-12-22T05:39:51;93169.03;;;1.29;81.29
10688;BME280;5392;42.688;23.298;2023-12-22T05:42:17;93172.03;;;1.45;80.36
10688;BME280;5392;42.688;23.298;2023-12-22T05:44:43;93162.81;;;1.31;81.53
10688;BME280;5392;42.688;23.298;2023-12-22T05:47:09;93168.50;;;1.40;81.25
10688;BME280;5392;42.688;23.298;2023-12-22T05:49:40;93164.31;;;1.26;82.02
10688;BME280;5392;42.688;23.298;2023-12-22T05:52:06;93169.63;;;1.31;82.36
10688;BME280;5392;42.688;23.298;2023-12-22T05:54:32;93171.06;;;1.40;82.05
10688;BME280;5392;42.688;23.298;2023-12-22T05:56:57;93176.53;;;1.43;82.32
10688;BME280;5392;42.688;23.298;2023-12-22T05:59:23;93170.66;;;1.43;81.89
10688;BME280;5392;42.688;23.298;2023-12-22T06:01:53;93165.25;;;1.53;81.58
10688;BME280;5392;42.688;23.298;2023-12-22T06:04:19;93165.97;;;1.40;82.35
10688;BME280;5392;42.688;23.298;2023-12-22T06:06:44;93178.19;;;1.58;81.76
10688;BME280;5392;42.688;23.298;2023-12-22T06:09:10;93174.88;;;1.64;81.07
10688;BME280;5392;42.688;23.298;2023-12-22T06:11:38;93177.84;;;1.67;81.37
10688;BME280;5392;42.688;23.298;2023-12-22T06:14:05;93180.81;;;1.77;81.11
10688;BME280;5392;42.688;23.298;2023-12-22T06:16:31;93174.59;;;1.80;80.67
10688;BME280;5392;42.688;23.298;2023-12-22T06:18:56;93175.34;;;1.74;80.21
10688;BME280;5392;42.688;23.298;2023-12-22T06:21:22;93177.94;;;1.53;81.59
10688;BME280;5392;42.688;23.298;2023-12-22T06:23:47;93188.59;;;1.69;81.70
10688;BME280;5392;42.688;23.298;2023-12-22T06:26:13;93195.97;;;1.58;81.90
10688;BME280;5392;42.688;23.298;2023-12-22T06:28:38;93177.94;;;1.53;83.02
10688;BME280;5392;42.688;23.298;2023-12-22T06:31:08;93176.88;;;1.68;82.85
10688;BME280;5392;42.688;23.298;2023-12-22T06:33:41;93188.78;;;1.68;82.01
10688;BME280;5392;42.688;23.298;2023-12-22T06:36:06;93192.06;;;1.62;81.88
10688;BME280;5392;42.688;23.298;2023-12-22T06:38:32;93196.88;;;1.84;82.28
10688;BME280;5392;42.688;23.298;2023-12-22T06:40:58;93194.97;;;1.93;81.69
10688;BME280;5392;42.688;23.298;2023-12-22T06:43:23;93193.88;;;2.08;81.01
10688;BME280;5392;42.688;23.298;2023-12-22T06:45:49;93189.78;;;2.14;80.22
10688;BME280;5392;42.688;23.298;2023-12-22T06:48:17;93201.38;;;2.30;80.12
10688;BME280;5392;42.688;23.298;2023-12-22T06:50:42;93192.22;;;2.42;79.08
10688;BME280;5392;42.688;23.298;2023-12-22T06:53:10;93205.16;;;2.53;79.55
10688;BME280;5392;42.688;23.298;2023-12-22T06:55:35;93188.72;;;2.49;78.66
10688;BME280;5392;42.688;23.298;2023-12-22T06:58:00;93195.47;;;2.16;78.32
10688;BME280;5392;42.688;23.298;2023-12-22T07:00:26;93196.63;;;2.13;79.25
10688;BME280;5392;42.688;23.298;2023-12-22T07:02:51;93200.34;;;2.17;80.68
10688;BME280;5392;42.688;23.298;2023-12-22T07:07:48;93196.94;;;2.45;78.72
10688;BME280;5392;42.688;23.298;2023-12-22T07:10:13;93208.31;;;2.08;80.24
10688;BME280;5392;42.688;23.298;2023-12-22T07:12:39;93206.19;;;2.05;81.31
10688;BME280;5392;42.688;23.298;2023-12-22T07:15:05;93208.22;;;2.29;80.93
10688;BME280;5392;42.688;23.298;2023-12-22T07:17:34;93205.72;;;2.42;79.89
10688;BME280;5392;42.688;23.298;2023-12-22T07:20:00;93200.44;;;2.50;78.44
10688;BME280;5392;42.688;23.298;2023-12-22T07:22:28;93214.84;;;2.30;80.07
10688;BME280;5392;42.688;23.298;2023-12-22T07:24:54;93220.22;;;2.61;80.05
10688;BME280;5392;42.688;23.298;2023-12-22T07:27:21;93215.00;;;2.76;79.06
10688;BME280;5392;42.688;23.298;2023-12-22T07:29:46;93215.00;;;2.89;78.53
10688;BME280;5392;42.688;23.298;2023-12-22T07:32:12;93225.31;;;2.55;80.21
10688;BME280;5392;42.688;23.298;2023-12-22T07:34:37;93226.59;;;2.25;81.01
10688;BME280;5392;42.688;23.298;2023-12-22T07:37:03;93217.63;;;2.35;81.29
10688;BME280;5392;42.688;23.298;2023-12-22T07:39:30;93221.88;;;2.21;82.73
10688;BME280;5392;42.688;23.298;2023-12-22T07:41:55;93210.88;;;2.14;82.31
10688;BME280;5392;42.688;23.298;2023-12-22T07:44:21;93222.28;;;2.25;82.29
10688;BME280;5392;42.688;23.298;2023-12-22T07:46:58;93221.25;;;2.13;82.31
10688;BME280;5392;42.688;23.298;2023-12-22T07:49:24;93220.66;;;2.11;82.58
10688;BME280;5392;42.688;23.298;2023-12-22T07:51:50;93226.59;;;2.25;82.20
10688;BME280;5392;42.688;23.298;2023-12-22T07:54:17;93240.09;;;2.25;82.81
10688;BME280;5392;42.688;23.298;2023-12-22T07:56:42;93238.03;;;2.61;81.05
10688;BME280;5392;42.688;23.298;2023-12-22T07:59:08;93250.47;;;2.37;81.85
10688;BME280;5392;42.688;23.298;2023-12-22T08:01:33;93248.56;;;2.45;82.38
10688;BME280;5392;42.688;23.298;2023-12-22T08:03:59;93244.03;;;2.34;82.84
10688;BME280;5392;42.688;23.298;2023-12-22T08:06:24;93256.25;;;2.65;81.19
10688;BME280;5392;42.688;23.298;2023-12-22T08:08:51;93260.34;;;2.66;82.28
10688;BME280;5392;42.688;23.298;2023-12-22T08:11:17;93263.69;;;2.19;83.24
10688;BME280;5392;42.688;23.298;2023-12-22T08:13:42;93275.91;;;2.37;82.92
10688;BME280;5392;42.688;23.298;2023-12-22T08:16:07;93271.47;;;2.52;81.90
10688;BME280;5392;42.688;23.298;2023-12-22T08:18:33;93283.63;;;2.56;83.13
10688;BME280;5392;42.688;23.298;2023-12-22T08:20:59;93279.44;;;2.36;83.43
10688;BME280;5392;42.688;23.298;2023-12-22T08:23:24;93275.28;;;2.28;84.47
10688;BME280;5392;42.688;23.298;2023-12-22T08:25:50;93281.53;;;2.26;84.86
10688;BME280;5392;42.688;23.298;2023-12-22T08:28:15;93282.59;;;2.44;84.24
10688;BME280;5392;42.688;23.298;2023-12-22T08:30:41;93283.75;;;2.42;84.75
10688;BME280;5392;42.688;23.298;2023-12-22T08:33:06;93283.66;;;2.63;85.17
10688;BME280;5392;42.688;23.298;2023-12-22T08:35:32;93279.22;;;2.91;83.88
10688;BME280;5392;42.688;23.298;2023-12-22T08:37:57;93280.38;;;2.82;84.45
10688;BME280;5392;42.688;23.298;2023-12-22T08:40:23;93282.22;;;3.08;84.17
10688;BME280;5392;42.688;23.298;2023-12-22T08:42:52;93282.81;;;3.29;83.35
10688;BME280;5392;42.688;23.298;2023-12-22T08:45:25;93277.53;;;3.44;82.31
10688;BME280;5392;42.688;23.298;2023-12-22T08:47:51;93285.00;;;3.39;82.20
10688;BME280;5392;42.688;23.298;2023-12-22T08:50:17;93278.91;;;3.53;82.53
10688;BME280;5392;42.688;23.298;2023-12-22T08:52:42;93274.41;;;3.61;82.63
10688;BME280;5392;42.688;23.298;2023-12-22T08:55:07;93281.25;;;3.74;81.60
10688;BME280;5392;42.688;23.298;2023-12-22T08:57:33;93284.59;;;3.75;81.93
10688;BME280;5392;42.688;23.298;2023-12-22T08:59:58;93288.50;;;3.90;80.80
10688;BME280;5392;42.688;23.298;2023-12-22T09:02:24;93284.19;;;3.51;81.80
10688;BME280;5392;42.688;23.298;2023-12-22T09:04:51;93287.31;;;3.73;81.84
10688;BME280;5392;42.688;23.298;2023-12-22T09:07:17;93303.59;;;3.98;81.06
10688;BME280;5392;42.688;23.298;2023-12-22T09:09:42;93306.72;;;4.00;81.10
10688;BME280;5392;42.688;23.298;2023-12-22T09:12:08;93306.94;;;3.86;81.51
10688;BME280;5392;42.688;23.298;2023-12-22T09:14:33;93305.16;;;3.80;82.69
10688;BME280;5392;42.688;23.298;2023-12-22T09:16:59;93308.66;;;4.11;82.21
10688;BME280;5392;42.688;23.298;2023-12-22T09:19:24;93311.19;;;4.18;81.67
10688;BME280;5392;42.688;23.298;2023-12-22T09:21:50;93313.34;;;4.27;82.23
10688;BME280;5392;42.688;23.298;2023-12-22T09:24:15;93313.13;;;4.35;82.34
10688;BME280;5392;42.688;23.298;2023-12-22T09:26:42;93306.66;;;4.39;82.54
10688;BME280;5392;42.688;23.298;2023-12-22T09:29:07;93305.28;;;4.37;82.55
10688;BME280;5392;42.688;23.298;2023-12-22T09:31:33;93297.47;;;4.25;83.42
10688;BME280;5392;42.688;23.298;2023-12-22T09:33:58;93302.53;;;4.32;83.93
10688;BME280;5392;42.688;23.298;2023-12-22T09:36:24;93294.63;;;4.47;83.60
10688;BME280;5392;42.688;23.298;2023-12-22T09:38:49;93292.78;;;4.73;82.87
10688;BME280;5392;42.688;23.298;2023-12-22T09:41:15;93288.56;;;4.92;82.41
10688;BME280;5392;42.688;23.298;2023-12-22T09:43:41;93293.97;;;4.77;82.52
10688;BME280;5392;42.688;23.298;2023-12-22T09:46:08;93296.75;;;5.07;81.83
10688;BME280;5392;42.688;23.298;2023-12-22T09:48:36;93280.38;;;5.21;80.70
10688;BME280;5392;42.688;23.298;2023-12-22T09:51:05;93277.50;;;5.42;80.09
10688;BME280;5392;42.688;23.298;2023-12-22T09:53:32;93288.38;;;5.56;79.19
10688;BME280;5392;42.688;23.298;2023-12-22T09:55:59;93279.78;;;4.30;80.06
10688;BME280;5392;42.688;23.298;2023-12-22T09:58:25;93288.66;;;4.02;82.44
10688;BME280;5392;42.688;23.298;2023-12-22T10:00:52;93281.38;;;4.25;82.52
10688;BME280;5392;42.688;23.298;2023-12-22T10:03:19;93278.88;;;4.63;81.10
10688;BME280;5392;42.688;23.298;2023-12-22T10:05:45;93268.94;;;4.92;80.52
10688;BME280;5392;42.688;23.298;2023-12-22T10:08:12;93258.72;;;5.24;79.64
10688;BME280;5392;42.688;23.298;2023-12-22T10:10:39;93268.47;;;5.40;79.54
10688;BME280;5392;42.688;23.298;2023-12-22T10:13:08;93264.50;;;5.44;78.79
10688;BME280;5392;42.688;23.298;2023-12-22T10:15:44;93266.94;;;5.57;79.03
10688;BME280;5392;42.688;23.298;2023-12-22T10:18:12;93255.69;;;5.64;78.31
10688;BME280;5392;42.688;23.298;2023-12-22T10:20:38;93243.78;;;5.76;78.05
10688;BME280;5392;42.688;23.298;2023-12-22T10:23:04;93246.19;;;5.96;78.41
10688;BME280;5392;42.688;23.298;2023-12-22T10:25:30;93240.00;;;6.04;77.74
10688;BME280;5392;42.688;23.298;2023-12-22T10:27:56;93233.13;;;6.22;77.18
10688;BME280;5392;42.688;23.298;2023-12-22T10:30:22;93231.88;;;6.31;78.13
10688;BME280;5392;42.688;23.298;2023-12-22T10:32:51;93221.31;;;6.57;78.28
10688;BME280;5392;42.688;23.298;2023-12-22T10:35:17;93225.22;;;6.90;77.22
10688;BME280;5392;42.688;23.298;2023-12-22T10:37:42;93228.88;;;7.12;76.44
10688;BME280;5392;42.688;23.298;2023-12-22T10:40:08;93217.66;;;7.24;75.65
10688;BME280;5392;42.688;23.298;2023-12-22T10:42:35;93206.78;;;7.41;75.24
10688;BME280;5392;42.688;23.298;2023-12-22T10:45:01;93196.84;;;7.44;72.90
10688;BME280;5392;42.688;23.298;2023-12-22T10:47:28;93194.16;;;7.51;73.29
10688;BME280;5392;42.688;23.298;2023-12-22T10:49:54;93180.25;;;7.58;72.24
10688;BME280;5392;42.688;23.298;2023-12-22T10:52:19;93188.50;;;7.72;72.82
10688;BME280;5392;42.688;23.298;2023-12-22T10:54:46;93193.28;;;7.91;71.82
10688;BME280;5392;42.688;23.298;2023-12-22T10:57:17;93186.59;;;8.02;71.59
10688;BME280;5392;42.688;23.298;2023-12-22T10:59:45;93182.25;;;8.02;71.94
10688;BME280;5392;42.688;23.298;2023-12-22T11:02:18;93182.69;;;7.99;71.27
10688;BME280;5392;42.688;23.298;2023-12-22T11:04:57;93180.22;;;7.81;71.45
10688;BME280;5392;42.688;23.298;2023-12-22T11:07:25;93181.69;;;7.66;71.45
10688;BME280;5392;42.688;23.298;2023-12-22T11:09:53;93176.47;;;7.61;72.85
10688;BME280;5392;42.688;23.298;2023-12-22T11:12:21;93163.72;;;7.66;72.10
10688;BME280;5392;42.688;23.298;2023-12-22T11:14:48;93156.16;;;7.71;72.63
10688;BME280;5392;42.688;23.298;2023-12-22T11:17:19;93150.34;;;7.87;70.81
10688;BME280;5392;42.688;23.298;2023-12-22T11:19:48;93143.88;;;7.96;71.13
10688;BME280;5392;42.688;23.298;2023-12-22T11:22:16;93147.91;;;7.92;71.07
10688;BME280;5392;42.688;23.298;2023-12-22T11:24:48;93144.44;;;7.86;72.03
10688;BME280;5392;42.688;23.298;2023-12-22T11:27:19;93138.63;;;7.79;69.95
10688;BME280;5392;42.688;23.298;2023-12-22T11:29:49;93147.47;;;7.60;70.31
10688;BME280;5392;42.688;23.298;2023-12-22T11:32:16;93155.59;;;7.57;70.51
10688;BME280;5392;42.688;23.298;2023-12-22T11:34:43;93164.19;;;7.63;70.76
10688;BME280;5392;42.688;23.298;2023-12-22T11:37:13;93178.47;;;7.70;69.50
10688;BME280;5392;42.688;23.298;2023-12-22T11:39:40;93173.78;;;7.67;69.26
10688;BME280;5392;42.688;23.298;2023-12-22T11:42:08;93185.47;;;7.86;66.68
10688;BME280;5392;42.688;23.298;2023-12-22T11:44:35;93190.06;;;7.73;66.19
10688;BME280;5392;42.688;23.298;2023-12-22T11:47:08;93200.66;;;7.76;65.46
10688;BME280;5392;42.688;23.298;2023-12-22T11:49:37;93200.19;;;7.91;66.34
10688;BME280;5392;42.688;23.298;2023-12-22T11:52:15;93192.16;;;7.99;64.27
10688;BME280;5392;42.688;23.298;2023-12-22T11:57:38;93186.94;;;7.71;63.89
10688;BME280;5392;42.688;23.298;2023-12-22T12:00:08;93189.94;;;7.68;64.49
10688;BME280;5392;42.688;23.298;2023-12-22T12:02:35;93199.53;;;7.61;64.26
10688;BME280;5392;42.688;23.298;2023-12-22T12:05:01;93197.41;;;7.58;65.38
10688;BME280;5392;42.688;23.298;2023-12-22T12:07:44;93200.75;;;7.58;64.86
10688;BME280;5392;42.688;23.298;2023-12-22T12:10:12;93195.72;;;7.40;65.49
10688;BME280;5392;42.688;23.298;2023-12-22T12:12:38;93195.38;;;7.36;65.42
10688;BME280;5392;42.688;23.298;2023-12-22T12:15:13;93195.28;;;7.43;65.86
10688;BME280;5392;42.688;23.298;2023-12-22T12:17:42;93185.69;;;7.27;65.73
10688;BME280;5392;42.688;23.298;2023-12-22T12:20:11;93175.75;;;7.30;65.15
10688;BME280;5392;42.688;23.298;2023-12-22T12:22:38;93177.25;;;7.50;64.57
10688;BME280;5392;42.688;23.298;2023-12-22T12:25:08;93175.56;;;7.55;63.41
10688;BME280;5392;42.688;23.298;2023-12-22T12:27:35;93168.75;;;7.49;63.79
10688;BME280;5392;42.688;23.298;2023-12-22T12:30:12;93171.63;;;7.41;64.09
10688;BME280;5392;42.688;23.298;2023-12-22T12:32:41;93171.75;;;7.34;62.92
10688;BME280;5392;42.688;23.298;2023-12-22T12:35:08;93160.34;;;6.96;63.31
10688;BME280;5392;42.688;23.298;2023-12-22T12:37:33;93157.22;;;7.05;64.17
10688;BME280;5392;42.688;23.298;2023-12-22T12:39:59;93149.78;;;6.74;64.31
10688;BME280;5392;42.688;23.298;2023-12-22T12:42:28;93149.28;;;6.84;64.75
10688;BME280;5392;42.688;23.298;2023-12-22T12:44:55;93126.09;;;6.79;64.68
10688;BME280;5392;42.688;23.298;2023-12-22T12:47:20;93129.09;;;6.76;65.24
10688;BME280;5392;42.688;23.298;2023-12-22T12:49:46;93140.19;;;6.70;65.51
10688;BME280;5392;42.688;23.298;2023-12-22T12:52:14;93134.50;;;6.56;66.12
10688;BME280;5392;42.688;23.298;2023-12-22T12:54:40;93143.72;;;6.57;65.14
10688;BME280;5392;42.688;23.298;2023-12-22T12:57:06;93159.38;;;6.67;65.08
10688;BME280;5392;42.688;23.298;2023-12-22T12:59:31;93163.84;;;6.72;64.96
10688;BME280;5392;42.688;23.298;2023-12-22T13:01:57;93177.84;;;6.69;63.99
10688;BME280;5392;42.688;23.298;2023-12-22T13:04:23;93177.94;;;6.63;63.74
10688;BME280;5392;42.688;23.298;2023-12-22T13:06:49;93186.50;;;6.68;63.91
10688;BME280;5392;42.688;23.298;2023-12-22T13:09:16;93191.22;;;6.71;63.48
10688;BME280;5392;42.688;23.298;2023-12-22T13:11:42;93177.22;;;6.55;63.48
10688;BME280;5392;42.688;23.298;2023-12-22T13:14:09;93159.94;;;6.69;63.43